createdAt,value
2022-11-25T00:01:39.324Z,4.03
2022-11-25T00:06:41.578Z,5.22
2022-11-25T00:11:43.918Z,5.82
2022-11-25T00:16:48.715Z,5.55
2022-11-25T00:21:51.316Z,4.05
2022-11-25T00:26:53.496Z,3.38
2022-11-25T00:31:55.852Z,11.43
2022-11-25T00:36:58.345Z,5.10
2022-11-25T00:42:19.092Z,4.20
2022-11-25T00:47:22.659Z,5.68
2022-11-25T00:52:27.526Z,5.97
2022-11-25T00:57:30.156Z,4.30
2022-11-25T01:02:32.465Z,13.48
2022-11-25T01:07:34.790Z,5.70
2022-11-25T01:12:37.199Z,6.97
2022-11-25T01:17:39.630Z,15.70
2022-11-25T01:22:42.011Z,6.65
2022-11-25T01:27:44.348Z,5.50
2022-11-25T01:32:46.521Z,5.15
2022-11-25T01:37:48.764Z,5.53
2022-11-25T01:42:51.043Z,5.63
2022-11-25T01:48:00.409Z,3.13
2022-11-25T01:53:08.438Z,3.67
2022-11-25T01:58:21.411Z,6.32
2022-11-25T02:03:28.943Z,4.03
2022-11-25T02:08:33.438Z,6.32
2022-11-25T02:13:37.159Z,9.23
2022-11-25T02:18:39.676Z,7.78
2022-11-25T02:23:55.024Z,5.50
2022-11-25T02:28:58.008Z,5.40
2022-11-25T02:34:00.233Z,4.43
2022-11-25T02:39:03.785Z,4.93
2022-11-25T02:44:06.789Z,3.42
2022-11-25T02:49:10.150Z,3.95
2022-11-25T02:54:16.798Z,4.60
2022-11-25T02:59:19.057Z,4.63
2022-11-25T03:04:21.516Z,4.97
2022-11-25T03:09:23.910Z,6.35
2022-11-25T03:14:26.139Z,8.75
2022-11-25T03:19:28.571Z,5.50
2022-11-25T03:24:31.504Z,6.30
2022-11-25T03:29:33.726Z,5.93
2022-11-25T03:34:36.162Z,6.40
2022-11-25T03:39:38.685Z,5.38
2022-11-25T03:44:40.892Z,6.80
2022-11-25T03:49:43.331Z,11.05
2022-11-25T03:54:45.775Z,10.32
2022-11-25T03:59:48.148Z,16.15
2022-11-25T04:04:50.493Z,8.82
2022-11-25T04:09:52.861Z,8.95
2022-11-25T04:14:55.046Z,8.23
2022-11-25T04:19:57.523Z,7.85
2022-11-25T04:24:59.842Z,8.13
2022-11-25T04:30:02.133Z,8.45
2022-11-25T04:35:04.825Z,7.82
2022-11-25T04:40:08.014Z,7.68
2022-11-25T04:45:22.920Z,9.95
2022-11-25T04:50:25.971Z,12.80
2022-11-25T04:55:28.448Z,8.55
2022-11-25T05:00:30.985Z,9.18
2022-11-25T05:05:33.354Z,24.98
2022-11-25T05:10:35.616Z,19.15
2022-11-25T05:15:37.961Z,20.58
2022-11-25T05:20:40.224Z,29.27
2022-11-25T05:25:42.636Z,24.20
2022-11-25T05:30:45.798Z,11.27
2022-11-25T05:36:14.272Z,8.63
2022-11-25T05:41:16.699Z,7.80
2022-11-25T05:46:20.008Z,6.25
2022-11-25T05:51:23.187Z,6.97
2022-11-25T05:56:25.405Z,10.70
2022-11-25T06:01:27.912Z,20.42
2022-11-25T06:06:30.673Z,13.95
2022-11-25T06:11:33.011Z,9.52
2022-11-25T06:16:35.205Z,7.63
2022-11-25T06:21:37.701Z,4.70
2022-11-25T06:26:40.027Z,10.55
2022-11-25T06:31:42.599Z,9.05
2022-11-25T06:36:45.066Z,14.80
2022-11-25T06:41:48.703Z,7.03
2022-11-25T06:46:50.979Z,12.60
2022-11-25T06:51:53.172Z,16.90
2022-11-25T06:56:55.355Z,11.40
2022-11-25T07:01:57.591Z,13.25
2022-11-25T07:07:00.001Z,13.52
2022-11-25T07:12:02.402Z,16.05
2022-11-25T07:17:10.345Z,10.88
2022-11-25T07:22:14.269Z,7.53
2022-11-25T07:27:16.469Z,8.57
2022-11-25T07:32:18.763Z,9.77
2022-11-25T07:37:21.040Z,2.45
2022-11-25T07:42:23.352Z,10.57
2022-11-25T07:47:25.971Z,4.13
2022-11-25T07:52:28.292Z,3.58
2022-11-25T07:57:30.545Z,7.38
2022-11-25T08:02:32.944Z,5.22
2022-11-25T08:07:36.869Z,6.82
2022-11-25T08:12:39.423Z,8.30
2022-11-25T08:17:41.767Z,2.25
2022-11-25T08:22:43.961Z,4.30
2022-11-25T08:27:46.224Z,3.05
2022-11-25T08:32:48.815Z,1.60
2022-11-25T08:37:51.511Z,1.30
2022-11-25T08:42:53.913Z,2.10
2022-11-25T08:47:56.603Z,9.38
2022-11-25T08:53:00.309Z,2.53
2022-11-25T08:58:02.907Z,6.45
2022-11-25T09:03:05.265Z,0.93
2022-11-25T09:08:09.158Z,1.63
2022-11-25T09:13:12.114Z,4.80
2022-11-25T09:18:15.958Z,1.45
2022-11-25T09:23:18.439Z,1.48
2022-11-25T09:28:22.282Z,3.20
2022-11-25T09:33:24.631Z,1.23
2022-11-25T09:38:26.930Z,4.20
2022-11-25T09:44:02.878Z,3.40
2022-11-25T09:49:23.428Z,5.25
2022-11-25T09:54:35.223Z,6.18
2022-11-25T09:59:58.932Z,3.05
2022-11-25T10:05:29.318Z,2.88
2022-11-25T10:10:43.287Z,3.15
2022-11-25T10:15:50.388Z,2.75
2022-11-25T10:20:53.768Z,1.00
2022-11-25T10:26:03.459Z,2.35
2022-11-25T10:31:22.975Z,2.83
2022-11-25T10:36:29.694Z,2.75
2022-11-25T10:41:37.596Z,3.63
2022-11-25T10:47:12.795Z,1.67
2022-11-25T10:52:14.661Z,1.38
2022-11-25T10:57:19.869Z,1.55
2022-11-25T11:02:30.476Z,1.58
2022-11-25T11:07:35.568Z,2.50
2022-11-25T11:12:37.875Z,1.10
2022-11-25T11:17:40.197Z,1.17
2022-11-25T11:22:58.810Z,2.20
2022-11-25T11:28:03.124Z,2.67
2022-11-25T11:33:26.495Z,3.80
2022-11-25T11:38:54.337Z,1.75
2022-11-25T11:44:22.520Z,1.15
2022-11-25T11:49:57.215Z,2.25
2022-11-25T11:55:44.315Z,2.03
2022-11-25T12:00:57.199Z,4.55
2022-11-25T12:06:05.083Z,4.40
2022-11-25T12:11:15.508Z,3.28
2022-11-25T12:16:25.775Z,3.65
2022-11-25T12:21:52.595Z,3.25
2022-11-25T12:27:06.623Z,4.95
2022-11-25T12:32:17.629Z,3.03
2022-11-25T12:37:34.413Z,2.38
2022-11-25T12:42:40.849Z,3.97
2022-11-25T12:47:44.653Z,1.23
2022-11-25T12:52:53.412Z,2.58
2022-11-25T12:58:09.656Z,2.27
2022-11-25T13:03:49.614Z,5.05
2022-11-25T13:09:28.976Z,2.30
2022-11-25T13:15:16.804Z,1.10
2022-11-25T13:20:28.295Z,2.15
2022-11-25T13:25:30.829Z,2.90
2022-11-25T13:30:33.227Z,2.17
2022-11-25T13:35:36.810Z,3.38
2022-11-25T13:40:40.245Z,1.95
2022-11-25T13:45:45.707Z,1.58
2022-11-25T13:56:30.423Z,3.25
2022-11-25T14:01:32.677Z,2.25
2022-11-25T14:06:51.755Z,3.42
2022-11-25T14:12:28.192Z,3.00
2022-11-25T14:18:04.490Z,9.93
2022-11-25T14:23:37.294Z,3.65
2022-11-25T14:28:42.481Z,3.22
2022-11-25T14:34:05.726Z,3.05
2022-11-25T14:39:23.302Z,2.25
2022-11-25T14:44:36.228Z,2.75
2022-11-25T14:49:59.562Z,3.70
2022-11-25T14:55:10.667Z,5.03
2022-11-25T15:00:16.358Z,4.07
2022-11-25T15:05:20.474Z,8.30
2022-11-25T15:10:34.068Z,7.35
2022-11-25T15:15:36.555Z,7.57
2022-11-25T15:20:39.043Z,6.38
2022-11-25T15:25:50.859Z,6.25
2022-11-25T15:30:58.673Z,6.70
2022-11-25T15:36:01.054Z,6.85
2022-11-25T15:41:04.233Z,5.57
2022-11-25T15:46:07.308Z,7.78
2022-11-25T15:51:38.845Z,7.78
2022-11-25T15:56:47.393Z,7.57
2022-11-25T16:01:49.804Z,8.15
2022-11-25T16:06:57.538Z,9.82
2022-11-25T16:12:07.246Z,10.77
2022-11-25T16:17:13.701Z,5.32
2022-11-25T16:22:19.438Z,5.93
2022-11-25T16:27:25.135Z,14.15
2022-11-25T16:32:29.952Z,12.18
2022-11-25T16:37:32.373Z,13.55
2022-11-25T16:42:34.793Z,13.77
2022-11-25T16:47:37.148Z,12.48
2022-11-25T16:52:39.422Z,18.77
2022-11-25T16:57:43.470Z,18.67
2022-11-25T17:02:45.993Z,14.32
2022-11-25T17:07:51.373Z,17.75
2022-11-25T17:12:53.714Z,17.73
2022-11-25T17:17:56.561Z,26.27
2022-11-25T17:22:59.729Z,27.20
2022-11-25T17:28:02.193Z,27.90
2022-11-25T17:33:07.599Z,28.70
2022-11-25T17:38:21.542Z,36.08
2022-11-25T17:43:23.825Z,43.97
2022-11-25T17:48:32.048Z,31.73
2022-11-25T17:53:38.226Z,37.40
2022-11-25T17:58:40.505Z,42.95
2022-11-25T18:03:42.763Z,65.50
2022-11-25T18:08:44.987Z,65.53
2022-11-25T18:13:48.222Z,50.65
2022-11-25T18:18:50.832Z,48.72
2022-11-25T18:23:54.313Z,47.78
2022-11-25T18:28:56.750Z,45.17
2022-11-25T18:33:58.937Z,50.72
2022-11-25T18:39:01.366Z,58.95
2022-11-25T18:44:06.275Z,39.75
2022-11-25T18:49:16.167Z,46.13
2022-11-25T18:54:18.364Z,44.67
2022-11-25T18:59:29.231Z,43.72
2022-11-25T19:04:31.543Z,42.00
2022-11-25T19:09:34.011Z,37.65
2022-11-25T19:14:40.250Z,25.08
2022-11-25T19:19:43.284Z,28.10
2022-11-25T19:24:46.568Z,29.90
2022-11-25T19:29:50.245Z,23.50
2022-11-25T19:34:57.468Z,26.30
2022-11-25T19:39:59.689Z,30.88
2022-11-25T19:45:03.810Z,29.27
2022-11-25T19:50:07.006Z,22.20
2022-11-25T19:55:18.555Z,23.92
2022-11-25T20:00:22.624Z,26.65
2022-11-25T20:05:32.342Z,28.05
2022-11-25T20:10:53.448Z,29.08
2022-11-25T20:15:56.983Z,33.90
2022-11-25T20:21:03.762Z,43.88
2022-11-25T20:26:06.339Z,35.22
2022-11-25T20:31:12.148Z,48.05
2022-11-25T20:36:17.640Z,36.00
2022-11-25T20:41:25.977Z,48.00
2022-11-25T20:46:30.541Z,47.80
2022-11-25T20:51:32.930Z,47.42
2022-11-25T20:56:35.483Z,52.90
2022-11-25T21:01:37.731Z,55.65
2022-11-25T21:06:41.252Z,44.63
2022-11-25T21:11:43.697Z,44.17
2022-11-25T21:16:47.166Z,37.33
2022-11-25T21:21:51.332Z,47.67
2022-11-25T21:26:53.737Z,78.18
2022-11-25T21:31:56.222Z,42.22
2022-11-25T21:36:59.314Z,51.05
2022-11-25T21:42:05.596Z,43.90
2022-11-25T21:47:19.513Z,43.58
2022-11-25T21:52:22.359Z,51.20
2022-11-25T21:57:29.141Z,44.92
2022-11-25T22:02:31.429Z,45.65
2022-11-25T22:07:33.937Z,39.22
2022-11-25T22:12:40.952Z,46.38
2022-11-25T22:17:43.958Z,44.40
2022-11-25T22:22:46.225Z,40.13
2022-11-25T22:27:49.235Z,33.75
2022-11-25T22:32:59.666Z,40.65
2022-11-25T22:38:02.739Z,38.47
2022-11-25T22:43:05.192Z,41.85
2022-11-25T22:48:08.481Z,33.30
2022-11-25T22:53:16.814Z,33.83
2022-11-25T22:58:19.136Z,33.45
2022-11-25T23:03:29.557Z,29.33
2022-11-25T23:08:34.682Z,25.02
2022-11-25T23:13:36.913Z,30.42
2022-11-25T23:18:46.113Z,18.40
2022-11-25T23:23:48.657Z,16.58
2022-11-25T23:28:50.871Z,20.30
2022-11-25T23:33:53.832Z,21.33
2022-11-25T23:39:02.268Z,26.35
2022-11-25T23:44:17.194Z,30.13
2022-11-25T23:49:27.691Z,23.77
2022-11-25T23:54:40.880Z,20.80
2022-11-25T23:59:43.772Z,13.45
